createdAt,value
2023-04-02T00:01:01.515Z,8.36
2023-04-02T00:03:44.017Z,8.32
2023-04-02T00:06:25.820Z,8.24
2023-04-02T00:08:56.369Z,8.20
2023-04-02T00:11:50.515Z,8.22
2023-04-02T00:14:27.328Z,8.28
2023-04-02T00:16:59.928Z,8.28
2023-04-02T00:19:42.374Z,8.30
2023-04-02T00:22:16.090Z,8.19
2023-04-02T00:24:42.974Z,8.23
2023-04-02T00:27:16.294Z,8.26
2023-04-02T00:29:50.717Z,8.26
2023-04-02T00:32:24.993Z,8.19
2023-04-02T00:34:52.391Z,8.30
2023-04-02T00:37:28.177Z,8.30
2023-04-02T00:40:07.359Z,8.25
2023-04-02T00:42:35.981Z,8.32
2023-04-02T00:45:04.262Z,8.37
2023-04-02T00:47:37.407Z,8.31
2023-04-02T00:50:04.468Z,8.28
2023-04-02T00:52:37.294Z,8.29
2023-04-02T00:55:33.413Z,8.27
2023-04-02T00:58:05.024Z,8.21
2023-04-02T01:00:36.127Z,8.24
2023-04-02T01:03:18.250Z,8.16
2023-04-02T01:05:50.388Z,8.14
2023-04-02T01:08:22.591Z,8.16
2023-04-02T01:11:24.623Z,8.24
2023-04-02T01:14:03.303Z,8.28
2023-04-02T01:16:38.248Z,8.22
2023-04-02T01:19:19.521Z,8.18
2023-04-02T01:22:08.115Z,8.25
2023-04-02T01:24:38.516Z,8.23
2023-04-02T01:27:24.050Z,8.20
2023-04-02T01:29:56.805Z,8.16
2023-04-02T01:32:26.392Z,8.17
2023-04-02T01:34:55.003Z,8.06
2023-04-02T01:37:34.283Z,8.05
2023-04-02T01:40:03.615Z,8.05
2023-04-02T01:42:53.031Z,8.05
2023-04-02T01:45:22.322Z,7.98
2023-04-02T01:47:50.378Z,7.95
2023-04-02T01:50:19.813Z,7.92
2023-04-02T01:52:54.796Z,8.04
2023-04-02T01:55:41.756Z,8.07
2023-04-02T01:58:14.538Z,8.03
2023-04-02T02:00:52.130Z,8.00
2023-04-02T02:03:21.974Z,7.98
2023-04-02T02:05:48.902Z,8.04
2023-04-02T02:08:27.158Z,8.02
2023-04-02T02:10:57.027Z,7.95
2023-04-02T02:13:25.921Z,7.93
2023-04-02T02:15:52.749Z,7.99
2023-04-02T02:18:23.577Z,7.97
2023-04-02T02:20:52.368Z,7.90
2023-04-02T02:23:20.838Z,7.94
2023-04-02T02:25:50.453Z,7.94
2023-04-02T02:28:29.750Z,7.89
2023-04-02T02:31:08.301Z,7.89
2023-04-02T02:33:43.709Z,7.81
2023-04-02T02:36:23.137Z,7.80
2023-04-02T02:39:02.277Z,7.74
2023-04-02T02:41:36.302Z,7.71
2023-04-02T02:44:08.848Z,7.72
2023-04-02T02:46:45.067Z,7.72
2023-04-02T02:49:20.735Z,7.67
2023-04-02T02:51:54.067Z,7.68
2023-04-02T02:54:22.372Z,7.77
2023-04-02T02:57:01.195Z,7.69
2023-04-02T02:59:30.566Z,7.65
2023-04-02T03:01:59.999Z,7.68
2023-04-02T03:04:30.624Z,7.67
2023-04-02T03:06:58.517Z,7.69
2023-04-02T03:09:43.808Z,7.68
2023-04-02T03:12:19.112Z,7.65
2023-04-02T03:14:53.042Z,7.61
2023-04-02T03:17:28.223Z,7.63
2023-04-02T03:20:12.037Z,7.64
2023-04-02T03:22:48.097Z,7.63
2023-04-02T03:25:20.795Z,7.65
2023-04-02T03:27:51.593Z,7.57
2023-04-02T03:30:54.493Z,7.52
2023-04-02T03:33:39.546Z,7.63
2023-04-02T03:36:35.587Z,7.63
2023-04-02T03:39:19.194Z,7.64
2023-04-02T03:42:12.902Z,7.66
2023-04-02T03:44:47.231Z,7.63
2023-04-02T03:47:23.597Z,7.58
2023-04-02T03:49:58.087Z,7.61
2023-04-02T03:52:31.387Z,7.59
2023-04-02T03:55:01.881Z,7.47
2023-04-02T03:57:57.160Z,7.54
2023-04-02T04:00:38.408Z,7.57
2023-04-02T04:03:32.870Z,7.60
2023-04-02T04:06:05.799Z,7.58
2023-04-02T04:08:42.603Z,7.59
2023-04-02T04:11:16.683Z,7.58
2023-04-02T04:13:54.829Z,7.60
2023-04-02T04:16:36.138Z,7.56
2023-04-02T04:19:30.108Z,7.62
2023-04-02T04:22:33.888Z,7.61
2023-04-02T04:25:05.374Z,7.62
2023-04-02T04:27:34.785Z,7.68
2023-04-02T04:30:07.279Z,7.68
2023-04-02T04:32:42.746Z,7.68
2023-04-02T04:35:37.075Z,7.66
2023-04-02T04:38:16.531Z,7.65
2023-04-02T04:40:54.076Z,7.65
2023-04-02T04:43:53.776Z,7.66
2023-04-02T04:46:33.573Z,7.68
2023-04-02T04:49:32.847Z,7.69
2023-04-02T04:52:21.062Z,7.69
2023-04-02T04:54:54.040Z,7.68
2023-04-02T04:57:42.210Z,7.74
2023-04-02T05:00:27.491Z,7.76
2023-04-02T05:03:03.351Z,7.77
2023-04-02T05:05:33.966Z,7.80
2023-04-02T05:08:09.798Z,7.83
2023-04-02T05:10:49.619Z,7.84
2023-04-02T05:13:43.396Z,7.89
2023-04-02T05:16:32.252Z,7.92
2023-04-02T05:19:09.969Z,7.96
2023-04-02T05:21:44.906Z,8.00
2023-04-02T05:24:48.913Z,8.04
2023-04-02T05:27:29.692Z,8.06
2023-04-02T05:30:03.856Z,8.10
2023-04-02T05:32:36.184Z,8.11
2023-04-02T05:35:08.985Z,8.11
2023-04-02T05:37:39.415Z,8.10
2023-04-02T05:40:21.654Z,8.17
2023-04-02T05:42:55.077Z,8.23
2023-04-02T05:45:21.750Z,8.27
2023-04-02T05:47:53.695Z,8.28
2023-04-02T05:50:30.514Z,8.39
2023-04-02T05:53:04.388Z,8.41
2023-04-02T05:55:42.244Z,8.51
2023-04-02T05:58:38.545Z,8.57
2023-04-02T06:01:45.773Z,8.62
2023-04-02T06:04:48.196Z,8.65
2023-04-02T06:07:29.723Z,8.65
2023-04-02T06:10:03.420Z,8.71
2023-04-02T06:12:44.643Z,8.67
2023-04-02T06:15:21.510Z,8.72
2023-04-02T06:17:53.866Z,8.67
2023-04-02T06:20:21.326Z,8.71
2023-04-02T06:22:53.116Z,8.60
2023-04-02T06:25:37.314Z,8.57
2023-04-02T06:28:07.150Z,8.61
2023-04-02T06:30:37.196Z,8.65
2023-04-02T06:33:05.093Z,8.68
2023-04-02T06:35:34.121Z,8.75
2023-04-02T06:38:14.630Z,8.77
2023-04-02T06:40:48.842Z,8.88
2023-04-02T06:43:27.704Z,9.04
2023-04-02T06:45:57.478Z,9.11
2023-04-02T06:48:32.754Z,9.17
2023-04-02T06:51:10.848Z,9.24
2023-04-02T06:53:41.318Z,9.20
2023-04-02T06:56:28.334Z,9.25
2023-04-02T06:58:55.454Z,9.24
2023-04-02T07:01:29.418Z,9.26
2023-04-02T07:03:57.163Z,9.21
2023-04-02T07:06:23.800Z,9.17
2023-04-02T07:08:50.723Z,9.16
2023-04-02T07:11:21.873Z,9.12
2023-04-02T07:13:49.403Z,9.18
2023-04-02T07:16:27.676Z,9.20
2023-04-02T07:18:55.615Z,9.33
2023-04-02T07:21:22.721Z,9.44
2023-04-02T07:23:49.375Z,9.43
2023-04-02T07:26:18.519Z,9.43
2023-04-02T07:28:46.883Z,9.45
2023-04-02T07:31:27.791Z,9.53
2023-04-02T07:33:58.521Z,9.57
2023-04-02T07:36:26.378Z,9.71
2023-04-02T07:38:53.299Z,9.83
2023-04-02T07:41:27.085Z,9.91
2023-04-02T07:43:55.771Z,10.02
2023-04-02T07:46:22.273Z,10.06
2023-04-02T07:48:48.856Z,10.11
2023-04-02T07:51:24.063Z,10.18
2023-04-02T07:53:58.821Z,10.29
2023-04-02T07:56:25.470Z,10.51
2023-04-02T07:58:55.318Z,10.60
2023-04-02T08:01:26.171Z,10.67
2023-04-02T08:03:54.757Z,10.57
2023-04-02T08:06:22.881Z,10.52
2023-04-02T08:08:49.943Z,10.54
2023-04-02T08:11:18.009Z,10.61
2023-04-02T08:13:44.680Z,10.61
2023-04-02T08:16:11.406Z,10.63
2023-04-02T08:18:38.002Z,10.71
2023-04-02T08:21:08.830Z,10.71
2023-04-02T08:23:40.180Z,10.67
2023-04-02T08:26:06.926Z,10.76
2023-04-02T08:28:33.772Z,10.97
2023-04-02T08:31:00.833Z,11.02
2023-04-02T08:33:29.103Z,11.14
2023-04-02T08:35:55.741Z,11.31
2023-04-02T08:38:25.167Z,11.39
2023-04-02T08:40:56.424Z,11.51
2023-04-02T08:43:28.894Z,11.38
2023-04-02T08:45:55.705Z,11.20
2023-04-02T08:48:26.001Z,11.09
2023-04-02T08:50:52.919Z,11.01
2023-04-02T08:53:21.248Z,10.95
2023-04-02T08:56:11.718Z,10.97
2023-04-02T08:58:44.318Z,10.99
2023-04-02T09:01:19.168Z,11.03
2023-04-02T09:03:47.865Z,11.01
2023-04-02T09:06:20.004Z,11.01
2023-04-02T09:08:47.881Z,11.10
2023-04-02T09:11:28.991Z,11.14
2023-04-02T09:13:56.984Z,11.11
2023-04-02T09:16:38.600Z,11.07
2023-04-02T09:19:15.330Z,11.03
2023-04-02T09:21:44.063Z,11.06
2023-04-02T09:24:12.230Z,11.05
2023-04-02T09:26:38.851Z,11.00
2023-04-02T09:29:11.450Z,11.01
2023-04-02T09:31:40.174Z,10.97
2023-04-02T09:34:29.158Z,10.94
2023-04-02T09:36:56.074Z,10.83
2023-04-02T09:39:29.419Z,10.84
2023-04-02T09:42:05.385Z,10.86
2023-04-02T09:44:35.833Z,10.91
2023-04-02T09:47:04.128Z,10.97
2023-04-02T09:49:32.460Z,10.96
2023-04-02T09:52:12.461Z,10.94
2023-04-02T09:54:41.773Z,11.00
2023-04-02T09:57:38.327Z,11.03
2023-04-02T10:03:05.887Z,11.32
2023-04-02T10:05:40.653Z,11.33
2023-04-02T10:08:28.426Z,11.41
2023-04-02T10:10:59.758Z,11.45
2023-04-02T10:13:28.844Z,11.56
2023-04-02T10:16:15.719Z,11.51
2023-04-02T10:18:46.862Z,11.46
2023-04-02T10:21:16.319Z,11.46
2023-04-02T10:23:44.067Z,11.44
2023-04-02T10:26:28.799Z,11.53
2023-04-02T10:29:06.718Z,11.66
2023-04-02T10:31:45.762Z,11.78
2023-04-02T10:34:29.542Z,11.76
2023-04-02T10:36:59.955Z,11.88
2023-04-02T10:39:35.433Z,11.76
2023-04-02T10:42:21.562Z,11.67
2023-04-02T10:45:20.418Z,11.63
2023-04-02T10:48:06.000Z,11.62
2023-04-02T10:50:51.083Z,11.68
2023-04-02T10:53:24.971Z,11.78
2023-04-02T10:55:57.054Z,11.78
2023-04-02T10:58:25.258Z,11.84
2023-04-02T11:01:23.652Z,11.83
2023-04-02T11:03:58.783Z,11.87
2023-04-02T11:06:58.002Z,11.89
2023-04-02T11:09:33.721Z,11.98
2023-04-02T11:12:01.448Z,12.05
2023-04-02T11:14:30.181Z,12.12
2023-04-02T11:16:59.111Z,12.20
2023-04-02T11:19:29.981Z,12.33
2023-04-02T11:22:00.974Z,12.39
2023-04-02T11:24:30.229Z,12.39
2023-04-02T11:27:22.845Z,12.40
2023-04-02T11:30:04.143Z,12.51
2023-04-02T11:32:33.258Z,12.69
2023-04-02T11:35:07.241Z,12.55
2023-04-02T11:37:44.941Z,12.49
2023-04-02T11:40:22.446Z,12.52
2023-04-02T11:42:52.279Z,12.46
2023-04-02T11:45:24.729Z,12.32
2023-04-02T11:48:08.488Z,12.30
2023-04-02T11:50:47.274Z,12.26
2023-04-02T11:53:17.259Z,12.20
2023-04-02T11:55:47.176Z,12.14
2023-04-02T11:58:32.692Z,11.99
2023-04-02T12:01:16.244Z,11.94
2023-04-02T12:03:46.283Z,12.03
2023-04-02T12:06:30.059Z,12.01
2023-04-02T12:09:15.130Z,11.98
2023-04-02T12:11:42.257Z,11.94
2023-04-02T12:14:27.510Z,11.93
2023-04-02T12:16:55.206Z,11.93
2023-04-02T12:19:22.950Z,11.86
2023-04-02T12:21:53.037Z,11.72
2023-04-02T12:24:23.903Z,11.57
2023-04-02T12:27:15.354Z,11.43
2023-04-02T12:29:49.692Z,11.35
2023-04-02T12:32:42.710Z,11.26
2023-04-02T12:35:43.564Z,11.21
2023-04-02T12:38:31.836Z,11.24
2023-04-02T12:41:25.235Z,11.27
2023-04-02T12:44:09.906Z,11.30
2023-04-02T12:46:40.046Z,11.28
2023-04-02T12:49:49.258Z,11.29
2023-04-02T12:52:29.291Z,11.32
2023-04-02T12:55:09.113Z,11.47
2023-04-02T12:57:42.027Z,11.56
2023-04-02T13:00:30.288Z,11.58
2023-04-02T13:03:08.413Z,11.56
2023-04-02T13:05:47.284Z,11.56
2023-04-02T13:08:28.174Z,11.48
2023-04-02T13:11:01.259Z,11.39
2023-04-02T13:13:34.622Z,11.27
2023-04-02T13:16:31.609Z,11.32
2023-04-02T13:19:46.114Z,11.44
2023-04-02T13:22:30.877Z,11.42
2023-04-02T13:25:07.973Z,11.49
2023-04-02T13:27:34.637Z,11.57
2023-04-02T13:30:13.538Z,11.62
2023-04-02T13:35:38.443Z,11.65
2023-04-02T13:38:08.844Z,11.62
2023-04-02T13:40:46.140Z,11.54
2023-04-02T13:43:26.514Z,11.43
2023-04-02T13:45:58.500Z,11.31
2023-04-02T13:48:29.932Z,11.20
2023-04-02T13:50:56.689Z,11.16
2023-04-02T13:53:31.755Z,11.04
2023-04-02T13:56:01.903Z,10.89
2023-04-02T13:58:31.673Z,10.77
2023-04-02T14:01:01.177Z,10.73
2023-04-02T14:03:31.202Z,10.63
2023-04-02T14:05:58.343Z,10.51
2023-04-02T14:08:51.935Z,10.34
2023-04-02T14:11:32.402Z,10.31
2023-04-02T14:14:15.860Z,10.28
2023-04-02T14:16:50.846Z,10.20
2023-04-02T14:19:18.052Z,10.16
2023-04-02T14:22:04.883Z,10.07
2023-04-02T14:24:37.995Z,9.99
2023-04-02T14:27:18.616Z,9.95
2023-04-02T14:29:54.313Z,9.96
2023-04-02T14:32:39.642Z,9.93
2023-04-02T14:35:17.725Z,9.92
2023-04-02T14:38:03.284Z,9.95
2023-04-02T14:40:32.791Z,9.97
2023-04-02T14:43:07.408Z,10.00
2023-04-02T14:45:37.095Z,10.04
2023-04-02T14:48:12.454Z,10.05
2023-04-02T14:50:44.124Z,10.11
2023-04-02T14:53:19.275Z,10.12
2023-04-02T14:55:49.772Z,10.10
2023-04-02T14:58:23.693Z,10.09
2023-04-02T15:01:09.916Z,10.08
2023-04-02T15:03:47.720Z,10.01
2023-04-02T15:06:23.743Z,9.97
2023-04-02T15:09:09.818Z,9.95
2023-04-02T15:12:01.601Z,9.90
2023-04-02T15:14:34.397Z,9.83
2023-04-02T15:17:03.819Z,9.83
2023-04-02T15:19:31.911Z,9.88
2023-04-02T15:22:17.200Z,9.96
2023-04-02T15:24:55.868Z,10.24
2023-04-02T15:27:52.456Z,10.05
2023-04-02T15:30:28.320Z,10.02
2023-04-02T15:33:20.003Z,9.97
2023-04-02T15:35:59.079Z,9.96
2023-04-02T15:38:37.531Z,10.02
2023-04-02T15:41:41.516Z,9.97
2023-04-02T15:44:20.870Z,9.94
2023-04-02T15:47:20.726Z,9.86
2023-04-02T15:50:02.350Z,9.83
2023-04-02T15:53:03.653Z,9.73
2023-04-02T15:55:49.943Z,9.71
2023-04-02T15:58:44.105Z,9.69
2023-04-02T16:01:48.518Z,9.69
2023-04-02T16:04:53.162Z,9.64
2023-04-02T16:07:54.738Z,9.61
2023-04-02T16:10:41.097Z,9.63
2023-04-02T16:13:28.815Z,9.64
2023-04-02T16:16:13.554Z,9.60
2023-04-02T16:19:15.822Z,9.55
2023-04-02T16:21:50.589Z,9.51
2023-04-02T16:24:23.167Z,9.43
2023-04-02T16:27:27.824Z,9.34
2023-04-02T16:30:31.751Z,9.28
2023-04-02T16:33:28.431Z,9.23
2023-04-02T16:36:15.934Z,9.19
2023-04-02T16:39:15.916Z,9.31
2023-04-02T16:41:58.920Z,9.30
2023-04-02T16:44:37.774Z,9.23
2023-04-02T16:47:30.475Z,9.15
2023-04-02T16:50:17.292Z,9.12
2023-04-02T16:53:20.937Z,9.08
2023-04-02T16:56:20.008Z,9.08
2023-04-02T16:59:14.781Z,9.13
2023-04-02T17:01:44.584Z,9.05
2023-04-02T17:04:19.902Z,8.96
2023-04-02T17:07:17.304Z,8.95
2023-04-02T17:09:50.301Z,8.92
2023-04-02T17:12:22.752Z,8.96
2023-04-02T17:15:28.142Z,8.94
2023-04-02T17:18:00.424Z,8.89
2023-04-02T17:20:29.980Z,8.96
2023-04-02T17:22:57.323Z,8.96
2023-04-02T17:25:34.081Z,8.91
2023-04-02T17:28:04.932Z,8.86
2023-04-02T17:30:48.464Z,8.84
2023-04-02T17:33:18.329Z,8.81
2023-04-02T17:35:57.354Z,8.71
2023-04-02T17:38:39.753Z,8.72
2023-04-02T17:41:40.251Z,8.80
2023-04-02T17:44:20.646Z,8.75
2023-04-02T17:46:55.803Z,8.71
2023-04-02T17:49:49.135Z,8.65
2023-04-02T17:52:23.603Z,8.56
2023-04-02T17:55:25.037Z,8.58
2023-04-02T17:58:19.671Z,8.57
2023-04-02T18:01:18.331Z,8.53
2023-04-02T18:04:10.028Z,8.48
2023-04-02T18:06:46.226Z,8.49
2023-04-02T18:09:27.510Z,8.55
2023-04-02T18:12:08.482Z,8.53
2023-04-02T18:15:00.151Z,8.61
2023-04-02T18:17:47.896Z,8.57
2023-04-02T18:20:39.601Z,8.54
2023-04-02T18:23:47.325Z,8.52
2023-04-02T18:26:41.669Z,8.47
2023-04-02T18:29:29.188Z,8.40
2023-04-02T18:32:29.377Z,8.31
2023-04-02T18:35:24.129Z,8.23
2023-04-02T18:37:59.966Z,8.20
2023-04-02T18:40:32.504Z,8.15
2023-04-02T18:42:59.065Z,8.07
2023-04-02T18:45:48.837Z,8.06
2023-04-02T18:48:32.146Z,7.99
2023-04-02T18:51:01.786Z,7.89
2023-04-02T18:53:32.844Z,7.85
2023-04-02T18:56:02.932Z,7.87
2023-04-02T18:58:42.494Z,7.89
2023-04-02T19:01:13.328Z,7.84
2023-04-02T19:03:46.261Z,7.79
2023-04-02T19:06:19.252Z,7.72
2023-04-02T19:08:48.443Z,7.69
2023-04-02T19:11:23.746Z,7.68
2023-04-02T19:13:55.400Z,7.66
2023-04-02T19:16:31.553Z,7.66
2023-04-02T19:19:10.489Z,7.69
2023-04-02T19:21:56.675Z,7.67
2023-04-02T19:24:42.635Z,7.59
2023-04-02T19:27:28.053Z,7.53
2023-04-02T19:29:57.896Z,7.59
2023-04-02T19:32:32.138Z,7.62
2023-04-02T19:35:03.842Z,7.64
2023-04-02T19:37:36.430Z,7.59
2023-04-02T19:40:02.919Z,7.61
2023-04-02T19:42:38.279Z,7.61
2023-04-02T19:45:05.724Z,7.63
2023-04-02T19:47:34.954Z,7.66
2023-04-02T19:50:01.585Z,7.66
2023-04-02T19:52:28.186Z,7.66
2023-04-02T19:54:54.755Z,7.69
2023-04-02T19:57:21.669Z,7.68
2023-04-02T19:59:49.921Z,7.71
2023-04-02T20:02:16.374Z,7.62
2023-04-02T20:04:42.905Z,7.55
2023-04-02T20:07:09.443Z,7.49
2023-04-02T20:09:36.768Z,7.49
2023-04-02T20:12:03.576Z,7.47
2023-04-02T20:14:35.150Z,7.44
2023-04-02T20:17:01.783Z,7.46
2023-04-02T20:19:28.628Z,7.42
2023-04-02T20:21:55.106Z,7.40
2023-04-02T20:24:21.710Z,7.46
2023-04-02T20:26:50.476Z,7.50
2023-04-02T20:29:22.998Z,7.50
2023-04-02T20:31:49.756Z,7.50
2023-04-02T20:34:20.378Z,7.48
2023-04-02T20:36:47.692Z,7.44
2023-04-02T20:39:19.283Z,7.39
2023-04-02T20:41:48.810Z,7.45
2023-04-02T20:44:15.402Z,7.44
2023-04-02T20:46:42.213Z,7.45
2023-04-02T20:49:08.836Z,7.46
2023-04-02T20:51:36.624Z,7.47
2023-04-02T20:54:06.174Z,7.44
2023-04-02T20:56:33.359Z,7.43
2023-04-02T20:59:00.044Z,7.40
2023-04-02T21:01:27.848Z,7.40
2023-04-02T21:03:58.084Z,7.39
2023-04-02T21:06:28.967Z,7.36
2023-04-02T21:08:55.633Z,7.31
2023-04-02T21:11:22.646Z,7.41
2023-04-02T21:13:49.758Z,7.35
2023-04-02T21:16:16.781Z,7.32
2023-04-02T21:18:43.616Z,7.36
2023-04-02T21:21:13.320Z,7.35
2023-04-02T21:23:40.412Z,7.35
2023-04-02T21:26:07.316Z,7.35
2023-04-02T21:28:34.663Z,7.43
2023-04-02T21:31:02.582Z,7.46
2023-04-02T21:33:31.959Z,7.43
2023-04-02T21:36:05.239Z,7.44
2023-04-02T21:38:31.741Z,7.42
2023-04-02T21:41:00.260Z,7.38
2023-04-02T21:43:28.796Z,7.38
2023-04-02T21:45:58.296Z,7.33
2023-04-02T21:48:25.061Z,7.38
2023-04-02T21:50:51.574Z,7.34
2023-04-02T21:53:18.060Z,7.33
2023-04-02T21:55:44.624Z,7.28
2023-04-02T21:58:14.176Z,7.31
2023-04-02T22:00:40.847Z,7.33
2023-04-02T22:03:11.715Z,7.30
2023-04-02T22:05:42.605Z,7.30
2023-04-02T22:08:09.169Z,7.33
2023-04-02T22:10:35.992Z,7.29
2023-04-02T22:13:02.690Z,7.28
2023-04-02T22:15:31.502Z,7.29
2023-04-02T22:17:58.087Z,7.19
2023-04-02T22:20:24.638Z,7.25
2023-04-02T22:22:51.416Z,7.27
2023-04-02T22:25:17.905Z,7.29
2023-04-02T22:27:44.467Z,7.29
2023-04-02T22:30:14.283Z,7.27
2023-04-02T22:32:45.252Z,7.28
2023-04-02T22:35:14.000Z,7.27
2023-04-02T22:37:40.714Z,7.22
2023-04-02T22:40:07.474Z,7.18
2023-04-02T22:42:37.586Z,7.22
2023-04-02T22:45:08.042Z,7.25
2023-04-02T22:47:34.576Z,7.23
2023-04-02T22:50:03.785Z,7.26
2023-04-02T22:52:30.288Z,7.25
2023-04-02T22:54:56.927Z,7.24
2023-04-02T22:57:23.551Z,7.26
2023-04-02T22:59:50.276Z,7.23
2023-04-02T23:02:24.465Z,7.21
2023-04-02T23:04:51.310Z,7.22
2023-04-02T23:07:19.194Z,7.24
2023-04-02T23:09:46.010Z,7.20
2023-04-02T23:12:14.359Z,7.24
2023-04-02T23:14:43.422Z,7.17
2023-04-02T23:17:11.723Z,7.15
2023-04-02T23:19:40.120Z,7.10
2023-04-02T23:22:11.145Z,7.10
2023-04-02T23:24:41.010Z,7.09
2023-04-02T23:27:07.762Z,7.09
2023-04-02T23:29:36.846Z,7.10
2023-04-02T23:32:05.910Z,7.06
2023-04-02T23:34:35.747Z,7.05
2023-04-02T23:37:02.372Z,7.03
2023-04-02T23:39:28.922Z,7.02
2023-04-02T23:41:57.809Z,7.01
2023-04-02T23:44:35.989Z,7.03
2023-04-02T23:47:03.461Z,7.05
2023-04-02T23:49:30.047Z,7.06
2023-04-02T23:51:58.891Z,7.02
2023-04-02T23:54:25.608Z,7.01
2023-04-02T23:56:54.871Z,6.97
2023-04-02T23:59:21.484Z,7.02
